sensor_id;sensor_type;location;lat;lon;timestamp;temperature;humidity
14119;DHT22;7138;49.246;9.100;2023-05-08T00:01:47;13.70;99.90
14119;DHT22;7138;49.246;9.100;2023-05-08T00:04:13;13.70;99.90
14119;DHT22;7138;49.246;9.100;2023-05-08T00:06:39;13.70;99.90
14119;DHT22;7138;49.246;9.100;2023-05-08T00:09:05;13.70;99.90
14119;DHT22;7138;49.246;9.100;2023-05-08T00:11:31;13.70;99.90
14119;DHT22;7138;49.246;9.100;2023-05-08T00:13:57;13.70;99.90
14119;DHT22;7138;49.246;9.100;2023-05-08T00:16:23;13.70;99.90
14119;DHT22;7138;49.246;9.100;2023-05-08T00:18:50;13.70;99.90
14119;DHT22;7138;49.246;9.100;2023-05-08T00:21:17;13.70;99.90
14119;DHT22;7138;49.246;9.100;2023-05-08T00:23:43;13.70;99.90
14119;DHT22;7138;49.246;9.100;2023-05-08T00:26:09;13.70;99.90
14119;DHT22;7138;49.246;9.100;2023-05-08T00:28:35;13.70;99.90
14119;DHT22;7138;49.246;9.100;2023-05-08T00:31:01;13.70;99.90
14119;DHT22;7138;49.246;9.100;2023-05-08T00:33:27;13.70;99.90
14119;DHT22;7138;49.246;9.100;2023-05-08T00:36:01;13.70;99.90
14119;DHT22;7138;49.246;9.100;2023-05-08T00:38:29;13.70;99.90
14119;DHT22;7138;49.246;9.100;2023-05-08T00:40:56;13.60;99.90
14119;DHT22;7138;49.246;9.100;2023-05-08T00:43:21;13.60;99.90
14119;DHT22;7138;49.246;9.100;2023-05-08T00:45:57;13.60;99.90
14119;DHT22;7138;49.246;9.100;2023-05-08T00:48:28;13.60;99.90
14119;DHT22;7138;49.246;9.100;2023-05-08T00:50:57;13.60;99.90
14119;DHT22;7138;49.246;9.100;2023-05-08T00:53:27;13.60;99.90
14119;DHT22;7138;49.246;9.100;2023-05-08T00:55:55;13.60;99.90
14119;DHT22;7138;49.246;9.100;2023-05-08T00:58:22;13.60;99.90
14119;DHT22;7138;49.246;9.100;2023-05-08T01:00:55;13.60;99.90
14119;DHT22;7138;49.246;9.100;2023-05-08T01:03:22;13.60;99.90
14119;DHT22;7138;49.246;9.100;2023-05-08T01:05:49;13.60;99.90
14119;DHT22;7138;49.246;9.100;2023-05-08T01:08:15;13.60;99.90
14119;DHT22;7138;49.246;9.100;2023-05-08T01:10:49;13.60;99.90
14119;DHT22;7138;49.246;9.100;2023-05-08T01:13:30;13.70;99.90
14119;DHT22;7138;49.246;9.100;2023-05-08T01:16:10;13.60;99.90
14119;DHT22;7138;49.246;9.100;2023-05-08T01:18:43;13.60;99.90
14119;DHT22;7138;49.246;9.100;2023-05-08T01:21:22;13.60;99.90
14119;DHT22;7138;49.246;9.100;2023-05-08T01:24:23;13.60;99.90
14119;DHT22;7138;49.246;9.100;2023-05-08T01:27:28;13.60;99.90
14119;DHT22;7138;49.246;9.100;2023-05-08T01:30:45;13.60;99.90
14119;DHT22;7138;49.246;9.100;2023-05-08T01:33:27;13.60;99.90
14119;DHT22;7138;49.246;9.100;2023-05-08T01:36:01;13.60;99.90
14119;DHT22;7138;49.246;9.100;2023-05-08T01:38:44;13.60;99.90
14119;DHT22;7138;49.246;9.100;2023-05-08T01:41:24;13.60;99.90
14119;DHT22;7138;49.246;9.100;2023-05-08T01:43:58;13.60;99.90
14119;DHT22;7138;49.246;9.100;2023-05-08T01:46:35;13.60;99.90
14119;DHT22;7138;49.246;9.100;2023-05-08T01:49:07;13.60;99.90
14119;DHT22;7138;49.246;9.100;2023-05-08T01:51:38;13.60;99.90
14119;DHT22;7138;49.246;9.100;2023-05-08T01:54:09;13.60;99.90
14119;DHT22;7138;49.246;9.100;2023-05-08T01:56:42;13.60;99.90
14119;DHT22;7138;49.246;9.100;2023-05-08T01:59:13;13.60;99.90
14119;DHT22;7138;49.246;9.100;2023-05-08T02:01:43;13.60;99.90
14119;DHT22;7138;49.246;9.100;2023-05-08T02:04:13;13.60;99.90
14119;DHT22;7138;49.246;9.100;2023-05-08T02:06:41;13.60;99.90
14119;DHT22;7138;49.246;9.100;2023-05-08T02:09:08;13.60;99.90
14119;DHT22;7138;49.246;9.100;2023-05-08T02:11:37;13.60;99.90
14119;DHT22;7138;49.246;9.100;2023-05-08T02:14:06;13.60;99.90
14119;DHT22;7138;49.246;9.100;2023-05-08T02:16:33;13.60;99.90
14119;DHT22;7138;49.246;9.100;2023-05-08T02:19:02;13.60;99.90
14119;DHT22;7138;49.246;9.100;2023-05-08T02:21:33;13.60;99.90
14119;DHT22;7138;49.246;9.100;2023-05-08T02:24:00;13.60;99.90
14119;DHT22;7138;49.246;9.100;2023-05-08T02:26:29;13.50;99.90
14119;DHT22;7138;49.246;9.100;2023-05-08T02:28:57;13.50;99.90
14119;DHT22;7138;49.246;9.100;2023-05-08T02:31:27;13.50;99.90
14119;DHT22;7138;49.246;9.100;2023-05-08T02:33:54;13.50;99.90
14119;DHT22;7138;49.246;9.100;2023-05-08T02:36:22;13.50;99.90
14119;DHT22;7138;49.246;9.100;2023-05-08T02:38:53;13.50;99.90
14119;DHT22;7138;49.246;9.100;2023-05-08T02:41:26;13.40;99.90
14119;DHT22;7138;49.246;9.100;2023-05-08T02:43:55;13.40;99.90
14119;DHT22;7138;49.246;9.100;2023-05-08T02:46:26;13.40;99.90
14119;DHT22;7138;49.246;9.100;2023-05-08T02:49:06;13.40;99.90
14119;DHT22;7138;49.246;9.100;2023-05-08T02:51:48;13.40;99.90
14119;DHT22;7138;49.246;9.100;2023-05-08T02:54:27;13.40;99.90
14119;DHT22;7138;49.246;9.100;2023-05-08T02:57:00;13.40;99.90
14119;DHT22;7138;49.246;9.100;2023-05-08T02:59:36;13.40;99.90
14119;DHT22;7138;49.246;9.100;2023-05-08T03:02:09;13.40;99.90
14119;DHT22;7138;49.246;9.100;2023-05-08T03:04:44;13.40;99.90
14119;DHT22;7138;49.246;9.100;2023-05-08T03:07:15;13.30;99.90
14119;DHT22;7138;49.246;9.100;2023-05-08T03:09:43;13.40;99.90
14119;DHT22;7138;49.246;9.100;2023-05-08T03:12:14;13.30;99.90
14119;DHT22;7138;49.246;9.100;2023-05-08T03:14:52;13.30;99.90
14119;DHT22;7138;49.246;9.100;2023-05-08T03:17:25;13.30;99.90
14119;DHT22;7138;49.246;9.100;2023-05-08T03:19:57;13.30;99.90
14119;DHT22;7138;49.246;9.100;2023-05-08T03:22:27;13.30;99.90
14119;DHT22;7138;49.246;9.100;2023-05-08T03:24:58;13.30;99.90
14119;DHT22;7138;49.246;9.100;2023-05-08T03:27:28;13.30;99.90
14119;DHT22;7138;49.246;9.100;2023-05-08T03:29:56;13.30;99.90
14119;DHT22;7138;49.246;9.100;2023-05-08T03:32:23;13.30;99.90
14119;DHT22;7138;49.246;9.100;2023-05-08T03:34:50;13.30;99.90
14119;DHT22;7138;49.246;9.100;2023-05-08T03:37:18;13.30;99.90
14119;DHT22;7138;49.246;9.100;2023-05-08T03:39:45;13.30;99.90
14119;DHT22;7138;49.246;9.100;2023-05-08T03:42:12;13.20;99.90
14119;DHT22;7138;49.246;9.100;2023-05-08T03:44:46;13.20;99.90
14119;DHT22;7138;49.246;9.100;2023-05-08T03:47:15;13.20;99.90
14119;DHT22;7138;49.246;9.100;2023-05-08T03:49:44;13.20;99.90
14119;DHT22;7138;49.246;9.100;2023-05-08T03:52:11;13.20;99.90
14119;DHT22;7138;49.246;9.100;2023-05-08T03:54:37;13.20;99.90
14119;DHT22;7138;49.246;9.100;2023-05-08T03:57:03;13.20;99.90
14119;DHT22;7138;49.246;9.100;2023-05-08T03:59:40;13.20;99.90
14119;DHT22;7138;49.246;9.100;2023-05-08T04:02:16;13.20;99.90
14119;DHT22;7138;49.246;9.100;2023-05-08T04:04:47;13.20;99.90
14119;DHT22;7138;49.246;9.100;2023-05-08T04:07:25;13.20;99.90
14119;DHT22;7138;49.246;9.100;2023-05-08T04:09:59;13.20;99.90
14119;DHT22;7138;49.246;9.100;2023-05-08T04:12:35;13.20;99.90
14119;DHT22;7138;49.246;9.100;2023-05-08T04:15:08;13.20;99.90
14119;DHT22;7138;49.246;9.100;2023-05-08T04:17:42;13.20;99.90
14119;DHT22;7138;49.246;9.100;2023-05-08T04:20:15;13.20;99.90
14119;DHT22;7138;49.246;9.100;2023-05-08T04:22:44;13.20;99.90
14119;DHT22;7138;49.246;9.100;2023-05-08T04:25:14;13.20;99.90
14119;DHT22;7138;49.246;9.100;2023-05-08T04:27:42;13.10;99.90
14119;DHT22;7138;49.246;9.100;2023-05-08T04:30:12;13.20;99.90
14119;DHT22;7138;49.246;9.100;2023-05-08T04:32:39;13.10;99.90
14119;DHT22;7138;49.246;9.100;2023-05-08T04:35:06;13.10;99.90
14119;DHT22;7138;49.246;9.100;2023-05-08T04:37:33;13.20;99.90
14119;DHT22;7138;49.246;9.100;2023-05-08T04:39:59;13.10;99.90
14119;DHT22;7138;49.246;9.100;2023-05-08T04:42:26;13.10;99.90
14119;DHT22;7138;49.246;9.100;2023-05-08T04:44:52;13.10;99.90
14119;DHT22;7138;49.246;9.100;2023-05-08T04:47:20;13.10;99.90
14119;DHT22;7138;49.246;9.100;2023-05-08T04:49:46;13.10;99.90
14119;DHT22;7138;49.246;9.100;2023-05-08T04:52:12;13.10;99.90
14119;DHT22;7138;49.246;9.100;2023-05-08T04:54:37;13.10;99.90
14119;DHT22;7138;49.246;9.100;2023-05-08T04:57:04;13.10;99.90
14119;DHT22;7138;49.246;9.100;2023-05-08T04:59:31;13.10;99.90
14119;DHT22;7138;49.246;9.100;2023-05-08T05:01:57;13.10;99.90
14119;DHT22;7138;49.246;9.100;2023-05-08T05:04:27;13.20;99.90
14119;DHT22;7138;49.246;9.100;2023-05-08T05:06:53;13.20;99.90
14119;DHT22;7138;49.246;9.100;2023-05-08T05:09:19;13.10;99.90
14119;DHT22;7138;49.246;9.100;2023-05-08T05:11:45;13.10;99.90
14119;DHT22;7138;49.246;9.100;2023-05-08T05:14:11;13.10;99.90
14119;DHT22;7138;49.246;9.100;2023-05-08T05:16:37;13.10;99.90
14119;DHT22;7138;49.246;9.100;2023-05-08T05:19:02;13.10;99.90
14119;DHT22;7138;49.246;9.100;2023-05-08T05:21:30;13.10;99.90
14119;DHT22;7138;49.246;9.100;2023-05-08T05:23:56;13.20;99.90
14119;DHT22;7138;49.246;9.100;2023-05-08T05:26:22;13.20;99.90
14119;DHT22;7138;49.246;9.100;2023-05-08T05:28:48;13.20;99.90
14119;DHT22;7138;49.246;9.100;2023-05-08T05:31:13;13.20;99.90
14119;DHT22;7138;49.246;9.100;2023-05-08T05:33:39;13.20;99.90
14119;DHT22;7138;49.246;9.100;2023-05-08T05:36:07;13.20;99.90
14119;DHT22;7138;49.246;9.100;2023-05-08T05:38:34;13.20;99.90
14119;DHT22;7138;49.246;9.100;2023-05-08T05:41:00;13.20;99.90
14119;DHT22;7138;49.246;9.100;2023-05-08T05:43:26;13.30;99.90
14119;DHT22;7138;49.246;9.100;2023-05-08T05:45:51;13.20;99.90
14119;DHT22;7138;49.246;9.100;2023-05-08T05:48:17;13.30;99.90
14119;DHT22;7138;49.246;9.100;2023-05-08T05:50:43;13.30;99.90
14119;DHT22;7138;49.246;9.100;2023-05-08T05:53:09;13.30;99.90
14119;DHT22;7138;49.246;9.100;2023-05-08T05:55:36;13.30;99.90
14119;DHT22;7138;49.246;9.100;2023-05-08T05:58:02;13.30;99.90
14119;DHT22;7138;49.246;9.100;2023-05-08T06:00:28;13.30;99.90
14119;DHT22;7138;49.246;9.100;2023-05-08T06:02:55;13.30;99.90
14119;DHT22;7138;49.246;9.100;2023-05-08T06:05:21;13.30;99.90
14119;DHT22;7138;49.246;9.100;2023-05-08T06:07:47;13.20;99.90
14119;DHT22;7138;49.246;9.100;2023-05-08T06:10:13;13.20;99.90
14119;DHT22;7138;49.246;9.100;2023-05-08T06:12:40;13.20;99.90
14119;DHT22;7138;49.246;9.100;2023-05-08T06:15:07;13.20;99.90
14119;DHT22;7138;49.246;9.100;2023-05-08T06:17:34;13.20;99.90
14119;DHT22;7138;49.246;9.100;2023-05-08T06:20:00;13.20;99.90
14119;DHT22;7138;49.246;9.100;2023-05-08T06:22:25;13.30;99.90
14119;DHT22;7138;49.246;9.100;2023-05-08T06:24:51;13.20;99.90
14119;DHT22;7138;49.246;9.100;2023-05-08T06:27:18;13.20;99.90
14119;DHT22;7138;49.246;9.100;2023-05-08T06:29:45;13.30;99.90
14119;DHT22;7138;49.246;9.100;2023-05-08T06:32:11;13.30;99.90
14119;DHT22;7138;49.246;9.100;2023-05-08T06:34:37;13.20;99.90
14119;DHT22;7138;49.246;9.100;2023-05-08T06:37:03;13.20;99.90
14119;DHT22;7138;49.246;9.100;2023-05-08T06:39:29;13.30;99.90
14119;DHT22;7138;49.246;9.100;2023-05-08T06:41:55;13.20;99.90
14119;DHT22;7138;49.246;9.100;2023-05-08T06:44:21;13.20;99.90
14119;DHT22;7138;49.246;9.100;2023-05-08T06:46:48;13.10;99.90
14119;DHT22;7138;49.246;9.100;2023-05-08T06:49:14;13.10;99.90
14119;DHT22;7138;49.246;9.100;2023-05-08T06:51:39;13.20;99.90
14119;DHT22;7138;49.246;9.100;2023-05-08T06:54:06;13.10;99.90
14119;DHT22;7138;49.246;9.100;2023-05-08T06:56:32;13.20;99.90
14119;DHT22;7138;49.246;9.100;2023-05-08T06:58:58;13.20;99.90
14119;DHT22;7138;49.246;9.100;2023-05-08T07:01:24;13.20;99.90
14119;DHT22;7138;49.246;9.100;2023-05-08T07:03:51;13.10;99.90
14119;DHT22;7138;49.246;9.100;2023-05-08T07:06:17;13.10;99.90
14119;DHT22;7138;49.246;9.100;2023-05-08T07:08:43;13.20;99.90
14119;DHT22;7138;49.246;9.100;2023-05-08T07:11:09;13.20;99.90
14119;DHT22;7138;49.246;9.100;2023-05-08T07:13:35;13.10;99.90
14119;DHT22;7138;49.246;9.100;2023-05-08T07:16:01;13.20;99.90
14119;DHT22;7138;49.246;9.100;2023-05-08T07:18:27;13.20;99.90
14119;DHT22;7138;49.246;9.100;2023-05-08T07:20:57;13.20;99.90
14119;DHT22;7138;49.246;9.100;2023-05-08T07:23:23;13.20;99.90
14119;DHT22;7138;49.246;9.100;2023-05-08T07:25:49;13.20;99.90
14119;DHT22;7138;49.246;9.100;2023-05-08T07:28:15;13.20;99.90
14119;DHT22;7138;49.246;9.100;2023-05-08T07:30:41;13.20;99.90
14119;DHT22;7138;49.246;9.100;2023-05-08T07:33:07;13.10;99.90
14119;DHT22;7138;49.246;9.100;2023-05-08T07:35:32;13.10;99.90
14119;DHT22;7138;49.246;9.100;2023-05-08T07:38:00;13.20;99.90
14119;DHT22;7138;49.246;9.100;2023-05-08T07:40:26;13.10;99.90
14119;DHT22;7138;49.246;9.100;2023-05-08T07:42:51;13.10;99.90
14119;DHT22;7138;49.246;9.100;2023-05-08T07:45:17;13.10;99.90
14119;DHT22;7138;49.246;9.100;2023-05-08T07:47:50;13.10;99.90
14119;DHT22;7138;49.246;9.100;2023-05-08T07:50:17;13.10;99.90
14119;DHT22;7138;49.246;9.100;2023-05-08T07:52:43;13.10;99.90
14119;DHT22;7138;49.246;9.100;2023-05-08T07:55:11;13.10;99.90
14119;DHT22;7138;49.246;9.100;2023-05-08T07:57:38;13.10;99.90
14119;DHT22;7138;49.246;9.100;2023-05-08T08:00:07;13.10;99.90
14119;DHT22;7138;49.246;9.100;2023-05-08T08:02:34;13.20;99.90
14119;DHT22;7138;49.246;9.100;2023-05-08T08:04:59;13.30;99.90
14119;DHT22;7138;49.246;9.100;2023-05-08T08:07:25;13.30;99.90
14119;DHT22;7138;49.246;9.100;2023-05-08T08:09:51;13.20;99.90
14119;DHT22;7138;49.246;9.100;2023-05-08T08:12:19;13.20;99.90
14119;DHT22;7138;49.246;9.100;2023-05-08T08:14:45;13.20;99.90
14119;DHT22;7138;49.246;9.100;2023-05-08T08:17:12;13.30;99.90
14119;DHT22;7138;49.246;9.100;2023-05-08T08:19:38;13.30;99.90
14119;DHT22;7138;49.246;9.100;2023-05-08T08:22:04;13.40;99.90
14119;DHT22;7138;49.246;9.100;2023-05-08T08:24:30;13.40;99.90
14119;DHT22;7138;49.246;9.100;2023-05-08T08:26:56;13.40;99.90
14119;DHT22;7138;49.246;9.100;2023-05-08T08:29:23;13.60;99.90
14119;DHT22;7138;49.246;9.100;2023-05-08T08:31:49;13.50;99.90
14119;DHT22;7138;49.246;9.100;2023-05-08T08:34:15;13.60;99.90
14119;DHT22;7138;49.246;9.100;2023-05-08T08:36:41;13.70;99.90
14119;DHT22;7138;49.246;9.100;2023-05-08T08:39:07;13.70;99.90
14119;DHT22;7138;49.246;9.100;2023-05-08T08:41:33;13.70;99.90
14119;DHT22;7138;49.246;9.100;2023-05-08T08:43:58;13.60;99.90
14119;DHT22;7138;49.246;9.100;2023-05-08T08:46:26;13.70;99.90
14119;DHT22;7138;49.246;9.100;2023-05-08T08:48:54;13.80;99.90
14119;DHT22;7138;49.246;9.100;2023-05-08T08:51:24;13.80;99.90
14119;DHT22;7138;49.246;9.100;2023-05-08T08:54:02;13.80;99.90
14119;DHT22;7138;49.246;9.100;2023-05-08T08:56:31;13.90;99.90
14119;DHT22;7138;49.246;9.100;2023-05-08T08:58:59;13.80;99.90
14119;DHT22;7138;49.246;9.100;2023-05-08T09:01:27;13.80;99.90
14119;DHT22;7138;49.246;9.100;2023-05-08T09:03:56;13.80;99.90
14119;DHT22;7138;49.246;9.100;2023-05-08T09:06:23;13.90;99.90
14119;DHT22;7138;49.246;9.100;2023-05-08T09:08:49;13.90;99.90
14119;DHT22;7138;49.246;9.100;2023-05-08T09:11:17;13.90;99.90
14119;DHT22;7138;49.246;9.100;2023-05-08T09:13:42;13.90;99.90
14119;DHT22;7138;49.246;9.100;2023-05-08T09:16:08;14.00;99.90
14119;DHT22;7138;49.246;9.100;2023-05-08T09:18:35;14.00;99.90
14119;DHT22;7138;49.246;9.100;2023-05-08T09:21:01;13.80;99.90
14119;DHT22;7138;49.246;9.100;2023-05-08T09:23:27;13.90;99.90
14119;DHT22;7138;49.246;9.100;2023-05-08T09:25:53;14.00;99.90
14119;DHT22;7138;49.246;9.100;2023-05-08T09:28:20;14.00;99.90
14119;DHT22;7138;49.246;9.100;2023-05-08T09:30:48;14.00;99.90
14119;DHT22;7138;49.246;9.100;2023-05-08T09:33:18;14.20;99.90
14119;DHT22;7138;49.246;9.100;2023-05-08T09:35:47;14.20;99.90
14119;DHT22;7138;49.246;9.100;2023-05-08T09:38:36;14.40;99.90
14119;DHT22;7138;49.246;9.100;2023-05-08T09:41:07;14.60;99.90
14119;DHT22;7138;49.246;9.100;2023-05-08T09:43:34;14.60;99.90
14119;DHT22;7138;49.246;9.100;2023-05-08T09:46:19;14.90;99.90
14119;DHT22;7138;49.246;9.100;2023-05-08T09:48:49;14.90;99.90
14119;DHT22;7138;49.246;9.100;2023-05-08T09:51:16;15.10;99.90
14119;DHT22;7138;49.246;9.100;2023-05-08T09:53:42;15.20;99.90
14119;DHT22;7138;49.246;9.100;2023-05-08T09:56:09;15.20;99.90
14119;DHT22;7138;49.246;9.100;2023-05-08T09:58:38;15.40;99.90
14119;DHT22;7138;49.246;9.100;2023-05-08T10:01:04;15.40;99.90
14119;DHT22;7138;49.246;9.100;2023-05-08T10:03:45;15.30;99.90
14119;DHT22;7138;49.246;9.100;2023-05-08T10:06:12;15.40;99.90
14119;DHT22;7138;49.246;9.100;2023-05-08T10:08:40;15.50;99.90
14119;DHT22;7138;49.246;9.100;2023-05-08T10:11:13;15.80;99.90
14119;DHT22;7138;49.246;9.100;2023-05-08T10:13:40;15.70;99.90
14119;DHT22;7138;49.246;9.100;2023-05-08T10:16:06;15.70;99.90
14119;DHT22;7138;49.246;9.100;2023-05-08T10:18:38;15.70;99.90
14119;DHT22;7138;49.246;9.100;2023-05-08T10:21:10;15.80;99.90
14119;DHT22;7138;49.246;9.100;2023-05-08T10:23:40;15.90;99.90
14119;DHT22;7138;49.246;9.100;2023-05-08T10:26:11;15.90;99.90
14119;DHT22;7138;49.246;9.100;2023-05-08T10:28:42;15.90;99.90
14119;DHT22;7138;49.246;9.100;2023-05-08T10:31:16;15.90;99.90
14119;DHT22;7138;49.246;9.100;2023-05-08T10:33:44;15.80;99.90
14119;DHT22;7138;49.246;9.100;2023-05-08T10:36:15;15.90;99.90
14119;DHT22;7138;49.246;9.100;2023-05-08T10:38:42;15.80;99.90
14119;DHT22;7138;49.246;9.100;2023-05-08T10:41:09;15.80;99.90
14119;DHT22;7138;49.246;9.100;2023-05-08T10:43:35;15.70;99.90
14119;DHT22;7138;49.246;9.100;2023-05-08T10:46:10;15.70;99.90
14119;DHT22;7138;49.246;9.100;2023-05-08T10:48:47;15.70;99.90
14119;DHT22;7138;49.246;9.100;2023-05-08T10:51:22;15.70;99.90
14119;DHT22;7138;49.246;9.100;2023-05-08T10:54:05;15.60;99.90
14119;DHT22;7138;49.246;9.100;2023-05-08T10:56:37;15.50;99.90
14119;DHT22;7138;49.246;9.100;2023-05-08T10:59:04;15.50;99.90
14119;DHT22;7138;49.246;9.100;2023-05-08T11:01:30;15.40;99.90
14119;DHT22;7138;49.246;9.100;2023-05-08T11:03:56;15.50;99.90
14119;DHT22;7138;49.246;9.100;2023-05-08T11:06:43;15.50;99.90
14119;DHT22;7138;49.246;9.100;2023-05-08T11:09:18;15.50;99.90
14119;DHT22;7138;49.246;9.100;2023-05-08T11:11:53;15.60;99.90
14119;DHT22;7138;49.246;9.100;2023-05-08T11:14:28;15.80;99.90
14119;DHT22;7138;49.246;9.100;2023-05-08T11:17:26;15.80;99.90
14119;DHT22;7138;49.246;9.100;2023-05-08T11:19:57;15.80;99.90
14119;DHT22;7138;49.246;9.100;2023-05-08T11:22:25;15.90;99.90
14119;DHT22;7138;49.246;9.100;2023-05-08T11:25:05;15.90;99.90
14119;DHT22;7138;49.246;9.100;2023-05-08T11:27:36;16.00;99.90
14119;DHT22;7138;49.246;9.100;2023-05-08T11:30:34;16.10;99.90
14119;DHT22;7138;49.246;9.100;2023-05-08T11:33:15;16.10;99.90
14119;DHT22;7138;49.246;9.100;2023-05-08T11:35:50;16.20;99.90
14119;DHT22;7138;49.246;9.100;2023-05-08T11:38:20;16.00;99.90
14119;DHT22;7138;49.246;9.100;2023-05-08T11:40:57;16.20;99.90
14119;DHT22;7138;49.246;9.100;2023-05-08T11:43:45;16.30;99.90
14119;DHT22;7138;49.246;9.100;2023-05-08T11:46:34;16.50;99.90
14119;DHT22;7138;49.246;9.100;2023-05-08T11:49:04;16.80;99.90
14119;DHT22;7138;49.246;9.100;2023-05-08T11:51:31;16.80;99.90
14119;DHT22;7138;49.246;9.100;2023-05-08T11:53:58;16.90;99.90
14119;DHT22;7138;49.246;9.100;2023-05-08T11:56:25;16.90;99.90
14119;DHT22;7138;49.246;9.100;2023-05-08T11:59:01;16.90;99.90
14119;DHT22;7138;49.246;9.100;2023-05-08T12:01:29;16.80;99.90
14119;DHT22;7138;49.246;9.100;2023-05-08T12:03:59;16.80;99.90
14119;DHT22;7138;49.246;9.100;2023-05-08T12:06:26;17.00;99.90
14119;DHT22;7138;49.246;9.100;2023-05-08T12:08:52;17.10;99.90
14119;DHT22;7138;49.246;9.100;2023-05-08T12:11:22;16.80;99.90
14119;DHT22;7138;49.246;9.100;2023-05-08T12:13:51;16.80;99.90
14119;DHT22;7138;49.246;9.100;2023-05-08T12:16:17;16.70;99.90
14119;DHT22;7138;49.246;9.100;2023-05-08T12:18:43;16.70;99.90
14119;DHT22;7138;49.246;9.100;2023-05-08T12:21:09;16.60;99.90
14119;DHT22;7138;49.246;9.100;2023-05-08T12:23:36;16.70;99.90
14119;DHT22;7138;49.246;9.100;2023-05-08T12:26:03;16.60;99.90
14119;DHT22;7138;49.246;9.100;2023-05-08T12:28:29;16.90;99.90
14119;DHT22;7138;49.246;9.100;2023-05-08T12:31:00;16.60;99.90
14119;DHT22;7138;49.246;9.100;2023-05-08T12:33:26;16.70;99.90
14119;DHT22;7138;49.246;9.100;2023-05-08T12:35:53;16.60;99.90
14119;DHT22;7138;49.246;9.100;2023-05-08T12:38:24;16.80;99.90
14119;DHT22;7138;49.246;9.100;2023-05-08T12:40:51;16.80;99.90
14119;DHT22;7138;49.246;9.100;2023-05-08T12:43:19;16.90;99.90
14119;DHT22;7138;49.246;9.100;2023-05-08T12:45:49;17.00;99.90
14119;DHT22;7138;49.246;9.100;2023-05-08T12:48:20;16.90;99.90
14119;DHT22;7138;49.246;9.100;2023-05-08T12:50:46;16.80;99.90
14119;DHT22;7138;49.246;9.100;2023-05-08T12:53:13;16.80;99.90
14119;DHT22;7138;49.246;9.100;2023-05-08T12:55:49;17.00;99.90
14119;DHT22;7138;49.246;9.100;2023-05-08T12:58:22;17.10;99.90
14119;DHT22;7138;49.246;9.100;2023-05-08T13:00:50;17.00;99.90
14119;DHT22;7138;49.246;9.100;2023-05-08T13:03:23;17.20;99.90
14119;DHT22;7138;49.246;9.100;2023-05-08T13:05:53;17.10;99.90
14119;DHT22;7138;49.246;9.100;2023-05-08T13:08:27;17.20;99.90
14119;DHT22;7138;49.246;9.100;2023-05-08T13:10:55;17.00;99.90
14119;DHT22;7138;49.246;9.100;2023-05-08T13:13:22;17.10;99.90
14119;DHT22;7138;49.246;9.100;2023-05-08T13:15:51;17.20;99.90
14119;DHT22;7138;49.246;9.100;2023-05-08T13:18:19;17.30;99.90
14119;DHT22;7138;49.246;9.100;2023-05-08T13:20:49;17.20;99.90
14119;DHT22;7138;49.246;9.100;2023-05-08T13:23:15;17.20;99.90
14119;DHT22;7138;49.246;9.100;2023-05-08T13:25:40;17.20;99.90
14119;DHT22;7138;49.246;9.100;2023-05-08T13:28:08;17.30;99.90
14119;DHT22;7138;49.246;9.100;2023-05-08T13:30:35;17.30;99.90
14119;DHT22;7138;49.246;9.100;2023-05-08T13:33:02;17.40;99.90
14119;DHT22;7138;49.246;9.100;2023-05-08T13:35:29;17.20;99.90
14119;DHT22;7138;49.246;9.100;2023-05-08T13:37:57;17.20;99.90
14119;DHT22;7138;49.246;9.100;2023-05-08T13:40:24;17.30;99.90
14119;DHT22;7138;49.246;9.100;2023-05-08T13:42:50;17.30;99.90
14119;DHT22;7138;49.246;9.100;2023-05-08T13:45:16;17.40;99.90
14119;DHT22;7138;49.246;9.100;2023-05-08T13:47:43;17.60;99.90
14119;DHT22;7138;49.246;9.100;2023-05-08T13:50:11;17.60;99.90
14119;DHT22;7138;49.246;9.100;2023-05-08T13:52:39;17.60;99.90
14119;DHT22;7138;49.246;9.100;2023-05-08T13:55:07;17.80;99.90
14119;DHT22;7138;49.246;9.100;2023-05-08T13:57:35;17.70;99.90
14119;DHT22;7138;49.246;9.100;2023-05-08T14:00:02;17.50;99.90
14119;DHT22;7138;49.246;9.100;2023-05-08T14:02:28;17.60;99.90
14119;DHT22;7138;49.246;9.100;2023-05-08T14:04:54;17.30;99.90
14119;DHT22;7138;49.246;9.100;2023-05-08T14:07:20;17.60;99.90
14119;DHT22;7138;49.246;9.100;2023-05-08T14:09:46;17.70;99.90
14119;DHT22;7138;49.246;9.100;2023-05-08T14:12:14;17.70;99.90
14119;DHT22;7138;49.246;9.100;2023-05-08T14:14:40;17.60;99.90
14119;DHT22;7138;49.246;9.100;2023-05-08T14:17:06;17.40;99.90
14119;DHT22;7138;49.246;9.100;2023-05-08T14:19:32;17.80;99.90
14119;DHT22;7138;49.246;9.100;2023-05-08T14:21:59;18.10;99.90
14119;DHT22;7138;49.246;9.100;2023-05-08T14:24:25;18.10;99.90
14119;DHT22;7138;49.246;9.100;2023-05-08T14:26:51;18.20;99.90
14119;DHT22;7138;49.246;9.100;2023-05-08T14:29:18;18.20;99.90
14119;DHT22;7138;49.246;9.100;2023-05-08T14:31:44;18.20;99.90
14119;DHT22;7138;49.246;9.100;2023-05-08T14:34:10;18.10;99.90
14119;DHT22;7138;49.246;9.100;2023-05-08T14:36:36;17.80;99.90
14119;DHT22;7138;49.246;9.100;2023-05-08T14:39:02;17.80;99.90
14119;DHT22;7138;49.246;9.100;2023-05-08T14:41:28;17.50;99.90
14119;DHT22;7138;49.246;9.100;2023-05-08T14:43:55;17.30;99.90
14119;DHT22;7138;49.246;9.100;2023-05-08T14:46:23;17.30;99.90
14119;DHT22;7138;49.246;9.100;2023-05-08T14:48:50;17.40;99.90
14119;DHT22;7138;49.246;9.100;2023-05-08T14:51:16;17.30;99.90
14119;DHT22;7138;49.246;9.100;2023-05-08T14:53:44;17.20;99.90
14119;DHT22;7138;49.246;9.100;2023-05-08T14:56:10;17.40;99.90
14119;DHT22;7138;49.246;9.100;2023-05-08T14:58:36;17.50;99.90
14119;DHT22;7138;49.246;9.100;2023-05-08T15:01:02;17.60;99.90
14119;DHT22;7138;49.246;9.100;2023-05-08T15:03:29;17.50;99.90
14119;DHT22;7138;49.246;9.100;2023-05-08T15:05:55;17.50;99.90
14119;DHT22;7138;49.246;9.100;2023-05-08T15:08:21;17.40;99.90
14119;DHT22;7138;49.246;9.100;2023-05-08T15:10:47;17.30;99.90
14119;DHT22;7138;49.246;9.100;2023-05-08T15:13:13;17.50;99.90
14119;DHT22;7138;49.246;9.100;2023-05-08T15:15:38;17.60;99.90
14119;DHT22;7138;49.246;9.100;2023-05-08T15:18:04;17.70;99.90
14119;DHT22;7138;49.246;9.100;2023-05-08T15:20:31;17.60;99.90
14119;DHT22;7138;49.246;9.100;2023-05-08T15:22:57;17.70;99.90
14119;DHT22;7138;49.246;9.100;2023-05-08T15:25:23;17.80;99.90
14119;DHT22;7138;49.246;9.100;2023-05-08T15:27:50;18.00;99.90
14119;DHT22;7138;49.246;9.100;2023-05-08T15:30:17;17.70;99.90
14119;DHT22;7138;49.246;9.100;2023-05-08T15:32:43;17.90;99.90
14119;DHT22;7138;49.246;9.100;2023-05-08T15:35:09;18.00;99.90
14119;DHT22;7138;49.246;9.100;2023-05-08T15:37:36;18.00;99.90
14119;DHT22;7138;49.246;9.100;2023-05-08T15:40:04;17.70;99.90
14119;DHT22;7138;49.246;9.100;2023-05-08T15:42:30;17.70;99.90
14119;DHT22;7138;49.246;9.100;2023-05-08T15:44:56;17.80;99.90
14119;DHT22;7138;49.246;9.100;2023-05-08T15:47:22;17.80;99.90
14119;DHT22;7138;49.246;9.100;2023-05-08T15:49:48;17.80;99.90
14119;DHT22;7138;49.246;9.100;2023-05-08T15:52:14;17.90;99.90
14119;DHT22;7138;49.246;9.100;2023-05-08T15:54:44;17.80;99.90
14119;DHT22;7138;49.246;9.100;2023-05-08T15:57:10;17.80;99.90